Time;durP1;ratioP1;P1;durP2;ratioP2;P2;SDS_P1;SDS_P2;PMS_P1;PMS_P2;Temp;Humidity;BMP_temperature;BMP_pressure;BME280_temperature;BME280_humidity;BME280_pressure;Samples;Min_cycle;Max_cycle;Signal;HPM_P1;HPM_P2
2023/01/09 00:00:14;;;;;;;30.83;19.65;;;;;;;2.53;52.81;94090.06;5034029;28;20056;-74
2023/01/09 00:02:40;;;;;;;27.33;18.73;;;;;;;2.53;52.98;94118.94;5035451;28;20041;-74
2023/01/09 00:05:07;;;;;;;21.92;15.43;;;;;;;2.44;53.53;94117.84;5031440;28;20043;-75
2023/01/09 00:07:32;;;;;;;17.30;12.98;;;;;;;2.47;53.26;94109.47;5034014;28;20021;-74
2023/01/09 00:09:58;;;;;;;17.73;10.63;;;;;;;2.49;53.19;94096.09;5040372;28;20018;-74
2023/01/09 00:12:23;;;;;;;13.80;10.35;;;;;;;2.34;53.02;94091.56;5036255;28;20495;-75
2023/01/09 00:14:48;;;;;;;17.25;11.98;;;;;;;2.44;52.82;94098.69;5033462;28;20160;-74
2023/01/09 00:17:14;;;;;;;18.85;10.57;;;;;;;2.35;52.97;94068.72;5034673;28;20433;-74
2023/01/09 00:19:39;;;;;;;18.33;12.75;;;;;;;2.46;52.85;94099.22;5035467;28;20028;-75
2023/01/09 00:22:05;;;;;;;21.23;12.82;;;;;;;2.32;53.23;94077.09;5028663;28;20128;-74
2023/01/09 00:24:31;;;;;;;26.90;16.02;;;;;;;2.30;53.17;94072.13;5034705;28;20067;-74
2023/01/09 00:26:56;;;;;;;40.97;23.17;;;;;;;2.31;53.43;94092.03;5034914;28;20044;-74
2023/01/09 00:29:21;;;;;;;38.50;23.52;;;;;;;2.42;53.45;94100.78;5035136;28;20034;-73
2023/01/09 00:31:47;;;;;;;46.85;24.58;;;;;;;2.10;53.29;94066.75;5034456;28;20397;-75
2023/01/09 00:34:12;;;;;;;40.72;23.17;;;;;;;2.31;53.57;94099.13;5032119;28;20049;-75
2023/01/09 00:36:37;;;;;;;33.05;21.55;;;;;;;2.18;53.64;94082.00;5031515;28;20152;-75
2023/01/09 00:39:04;;;;;;;30.70;20.67;;;;;;;2.33;53.77;94108.34;5034156;28;20551;-74
2023/01/09 00:41:35;;;;;;;30.20;21.83;;;;;;;2.33;53.98;94108.34;5036826;28;20037;-74
2023/01/09 00:44:08;;;;;;;30.27;20.85;;;;;;;2.33;53.72;94103.09;5044058;28;20568;-75
2023/01/09 00:46:40;;;;;;;33.15;19.05;;;;;;;2.36;53.75;94097.31;5038289;28;20033;-75
2023/01/09 00:49:06;;;;;;;29.80;19.10;;;;;;;2.32;53.71;94096.25;5041736;28;20087;-74
2023/01/09 00:51:32;;;;;;;26.40;16.40;;;;;;;2.15;53.99;94100.09;5036178;28;20519;-75
2023/01/09 00:53:58;;;;;;;21.73;14.82;;;;;;;2.20;54.28;94087.00;5036626;28;20029;-75
2023/01/09 00:56:24;;;;;;;26.20;16.70;;;;;;;2.05;54.21;94064.91;5042641;28;20568;-74
2023/01/09 00:58:51;;;;;;;22.35;15.73;;;;;;;2.21;54.56;94093.81;5035797;28;20505;-74
2023/01/09 01:01:16;;;;;;;25.95;17.00;;;;;;;2.08;54.27;94081.94;5037501;28;20039;-74
2023/01/09 01:03:42;;;;;;;25.67;16.75;;;;;;;2.06;54.11;94082.19;5035081;28;20045;-74
2023/01/09 01:08:54;;;;;;;21.67;15.30;;;;;;;2.17;54.02;94104.03;5036642;28;20047;-75
2023/01/09 01:11:20;;;;;;;20.30;13.20;;;;;;;2.08;54.11;94095.84;5037142;28;20025;-75
2023/01/09 01:13:45;;;;;;;16.48;11.05;;;;;;;1.93;54.20;94068.72;5034279;28;20029;-74
2023/01/09 01:16:12;;;;;;;14.63;9.60;;;;;;;2.11;54.07;94084.06;5037529;28;20021;-75
2023/01/09 01:18:38;;;;;;;15.45;9.95;;;;;;;1.96;53.84;94066.38;5035439;28;20527;-74
2023/01/09 01:21:08;;;;;;;13.57;10.00;;;;;;;1.98;54.21;94077.44;5038624;28;20034;-74
2023/01/09 01:23:35;;;;;;;15.82;10.25;;;;;;;2.08;53.95;94079.31;5031969;28;20247;-75
2023/01/09 01:26:26;;;;;;;14.98;11.45;;;;;;;1.91;54.17;94068.22;5036386;28;20051;-74
2023/01/09 01:28:51;;;;;;;12.77;9.70;;;;;;;1.94;54.18;94067.69;5035811;28;20044;-75
2023/01/09 01:31:18;;;;;;;15.15;11.30;;;;;;;1.97;54.54;94082.91;5043207;28;20016;-75
2023/01/09 01:33:44;;;;;;;15.77;12.00;;;;;;;1.92;54.47;94069.78;5043407;28;20077;-74
2023/01/09 01:36:10;;;;;;;15.52;11.80;;;;;;;2.04;54.20;94067.75;5035521;28;20553;-74
2023/01/09 01:38:35;;;;;;;19.33;12.32;;;;;;;2.09;54.21;94070.41;5042225;28;20473;-75
2023/01/09 01:41:01;;;;;;;15.95;12.98;;;;;;;2.17;54.15;94061.25;5037589;28;20033;-74
2023/01/09 01:43:27;;;;;;;18.92;13.25;;;;;;;2.14;54.37;94059.94;5033600;28;20286;-75
2023/01/09 01:45:53;;;;;;;19.77;12.07;;;;;;;2.17;54.47;94058.63;5034052;28;20527;-75
2023/01/09 01:48:28;;;;;;;21.85;14.07;;;;;;;2.25;54.18;94061.59;5034964;28;20045;-75
2023/01/09 01:51:01;;;;;;;17.25;12.90;;;;;;;2.21;53.93;94055.25;5037181;28;20037;-75
2023/01/09 01:53:35;;;;;;;19.85;12.88;;;;;;;2.12;54.32;94050.75;5039273;28;20057;-74
2023/01/09 01:56:15;;;;;;;30.27;18.05;;;;;;;2.16;54.47;94047.34;5038787;28;20080;-75
2023/01/09 01:58:46;;;;;;;26.50;17.65;;;;;;;2.14;54.88;94031.09;5038785;28;20112;-75
2023/01/09 02:01:12;;;;;;;27.55;16.95;;;;;;;2.18;54.86;94032.16;5036600;28;20109;-75
2023/01/09 02:03:40;;;;;;;23.80;16.73;;;;;;;2.12;54.79;94020.03;5036222;28;20120;-75
2023/01/09 02:06:06;;;;;;;28.63;17.10;;;;;;;2.03;55.00;94021.56;5036538;28;20049;-74
2023/01/09 02:08:32;;;;;;;23.13;15.30;;;;;;;2.09;54.80;94023.97;5035450;28;20040;-75
2023/01/09 02:10:57;;;;;;;28.27;17.45;;;;;;;2.14;54.83;94015.34;5034869;28;20028;-74
2023/01/09 02:13:25;;;;;;;20.98;13.77;;;;;;;2.05;54.94;94014.25;5037316;28;20017;-75
2023/01/09 02:16:09;;;;;;;21.40;14.07;;;;;;;1.87;55.13;93989.22;5034910;28;20052;-75
2023/01/09 02:19:00;;;;;;;19.67;14.23;;;;;;;1.88;55.39;94008.38;5035514;28;20033;-74
2023/01/09 02:21:31;;;;;;;22.50;13.50;;;;;;;1.97;55.11;94025.22;5035141;28;20048;-75
2023/01/09 02:24:21;;;;;;;19.40;13.50;;;;;;;2.07;54.92;94020.81;5035006;28;20040;-75
2023/01/09 02:27:11;;;;;;;17.38;12.88;;;;;;;2.12;54.67;94021.88;5033743;28;20112;-75
2023/01/09 02:30:10;;;;;;;21.65;13.57;;;;;;;2.12;54.80;94027.91;5035767;28;20039;-74
2023/01/09 02:32:44;;;;;;;18.35;12.38;;;;;;;2.22;54.71;94021.94;5035160;28;20041;-75
2023/01/09 02:35:26;;;;;;;17.55;12.48;;;;;;;2.04;54.62;94004.81;5036401;28;20045;-75
2023/01/09 02:38:13;;;;;;;16.70;11.57;;;;;;;2.12;54.89;94012.19;5034107;28;20102;-74
2023/01/09 02:41:01;;;;;;;16.50;11.45;;;;;;;1.98;54.88;94000.56;5030190;28;20840;-74
2023/01/09 02:43:27;;;;;;;16.17;11.38;;;;;;;2.08;54.81;94006.66;5033634;28;20133;-75
2023/01/09 02:45:52;;;;;;;16.83;12.50;;;;;;;2.02;54.92;94006.88;5032563;28;20025;-75
2023/01/09 02:48:18;;;;;;;18.50;13.98;;;;;;;1.87;55.08;93998.91;5037427;28;20052;-75
2023/01/09 02:50:58;;;;;;;19.73;13.55;;;;;;;1.97;55.02;94005.03;5031929;28;20083;-74
2023/01/09 02:53:38;;;;;;;22.13;14.57;;;;;;;1.99;54.92;94002.94;5035071;28;20037;-75
2023/01/09 02:56:07;;;;;;;22.48;13.85;;;;;;;1.99;54.95;94008.19;5033941;28;20041;-74
2023/01/09 02:58:50;;;;;;;18.75;13.07;;;;;;;2.03;55.11;94008.47;5033200;28;20116;-75
2023/01/09 03:01:27;;;;;;;19.80;12.75;;;;;;;2.09;55.28;94010.06;5036290;28;20052;-75
2023/01/09 03:04:08;;;;;;;17.92;13.50;;;;;;;2.08;55.20;94013.72;5035228;28;20041;-75
2023/01/09 03:06:40;;;;;;;18.10;12.23;;;;;;;2.01;55.00;93992.19;5045839;28;20037;-74
2023/01/09 03:09:14;;;;;;;16.83;12.02;;;;;;;2.02;54.82;93991.13;5043298;28;20044;-74
2023/01/09 03:11:45;;;;;;;18.83;13.85;;;;;;;2.12;55.12;93993.00;5035421;28;20060;-75
2023/01/09 03:14:16;;;;;;;16.52;12.65;;;;;;;2.14;55.14;93994.34;5035774;28;20215;-74
2023/01/09 03:16:46;;;;;;;17.52;14.30;;;;;;;2.26;55.56;94000.16;5032768;28;20025;-75
2023/01/09 03:19:16;;;;;;;21.23;15.27;;;;;;;2.04;56.02;93978.56;5032807;28;20052;-75
2023/01/09 03:21:43;;;;;;;20.75;15.05;;;;;;;1.77;56.31;93985.72;5031596;28;20033;-74
2023/01/09 03:24:09;;;;;;;20.63;14.60;;;;;;;1.70;56.04;93988.59;5040654;28;20291;-74
2023/01/09 03:26:34;;;;;;;18.80;13.23;;;;;;;1.82;55.95;94004.09;5033317;28;20462;-74
2023/01/09 03:29:00;;;;;;;19.77;14.50;;;;;;;1.72;55.70;93990.97;5031687;28;20033;-74
2023/01/09 03:31:25;;;;;;;20.50;14.77;;;;;;;1.49;55.85;93948.34;5034099;28;20074;-75
2023/01/09 03:33:51;;;;;;;21.95;15.52;;;;;;;1.86;55.40;93981.59;5033638;28;20045;-74
2023/01/09 03:36:18;;;;;;;22.02;14.82;;;;;;;1.78;55.86;93963.72;5032186;28;20045;-74
2023/01/09 03:38:43;;;;;;;23.10;15.80;;;;;;;1.97;56.04;94001.59;5041409;28;20056;-75
2023/01/09 03:41:09;;;;;;;19.15;14.23;;;;;;;1.76;55.93;93955.31;5038707;28;20493;-75
2023/01/09 03:43:34;;;;;;;20.98;14.82;;;;;;;1.83;55.74;93982.09;5033213;28;20056;-75
2023/01/09 03:46:00;;;;;;;18.52;12.88;;;;;;;1.92;55.99;93996.31;5032638;28;20030;-74
2023/01/09 03:48:26;;;;;;;18.48;13.10;;;;;;;1.79;56.01;93981.81;5035957;28;20095;-75
2023/01/09 03:50:53;;;;;;;21.95;12.65;;;;;;;1.96;55.70;94002.66;5032066;28;20037;-75
2023/01/09 03:53:20;;;;;;;16.35;11.32;;;;;;;1.98;55.48;94009.22;5041783;28;20038;-74
2023/01/09 03:55:48;;;;;;;15.88;11.32;;;;;;;2.03;55.76;94008.47;5034125;28;20033;-74
2023/01/09 03:58:14;;;;;;;14.60;11.00;;;;;;;2.03;55.63;94003.22;5034858;28;20571;-75
2023/01/09 04:00:40;;;;;;;15.05;11.27;;;;;;;1.97;55.55;93993.72;5034978;28;20040;-75
2023/01/09 04:03:07;;;;;;;15.93;11.07;;;;;;;2.08;55.33;94005.88;5035906;28;20037;-75
2023/01/09 04:05:33;;;;;;;17.55;10.70;;;;;;;2.00;55.58;94003.72;5030653;28;20044;-75
2023/01/09 04:07:59;;;;;;;15.52;10.98;;;;;;;1.95;55.47;93990.59;5034170;28;20044;-74
2023/01/09 04:10:24;;;;;;;15.43;11.20;;;;;;;1.96;55.71;94002.66;5034469;28;20025;-73
2023/01/09 04:12:49;;;;;;;18.25;12.68;;;;;;;2.00;55.79;94008.97;5038283;28;20104;-75
2023/01/09 04:15:15;;;;;;;19.40;12.60;;;;;;;2.04;55.54;94002.19;5040475;28;20128;-75
2023/01/09 04:17:40;;;;;;;16.77;11.93;;;;;;;1.89;55.56;94008.13;5039514;28;20041;-75
2023/01/09 04:20:06;;;;;;;16.10;11.07;;;;;;;1.96;55.84;93992.19;5038818;28;20048;-74
2023/01/09 04:22:31;;;;;;;16.25;10.10;;;;;;;1.82;56.17;93980.50;5039455;28;20022;-75
2023/01/09 04:24:57;;;;;;;12.60;9.68;;;;;;;1.95;55.95;93985.34;5039147;28;20044;-74
2023/01/09 04:27:22;;;;;;;14.10;10.43;;;;;;;1.82;56.00;93970.00;5036592;28;20033;-74
2023/01/09 04:29:48;;;;;;;14.45;10.38;;;;;;;1.90;55.96;93993.19;5031954;28;20113;-76
2023/01/09 04:32:13;;;;;;;14.93;10.07;;;;;;;1.95;55.68;93990.59;5036093;28;20625;-74
2023/01/09 04:34:39;;;;;;;14.02;9.20;;;;;;;1.75;55.70;93977.34;5031074;28;20095;-74
2023/01/09 04:37:04;;;;;;;17.40;10.48;;;;;;;1.88;56.11;93990.81;5040594;28;20029;-76
2023/01/09 04:39:30;;;;;;;14.23;10.48;;;;;;;1.90;56.36;93987.94;5045889;28;20037;-75
2023/01/09 04:41:55;;;;;;;16.33;12.07;;;;;;;1.71;56.30;93965.78;5042136;28;20274;-76
2023/01/09 04:44:26;;;;;;;13.05;10.10;;;;;;;1.88;56.33;93976.91;5044243;28;20068;-76
2023/01/09 04:46:52;;;;;;;14.05;9.95;;;;;;;1.95;55.97;93991.38;5048544;28;20108;-76
2023/01/09 04:49:18;;;;;;;15.15;9.77;;;;;;;1.96;55.87;93981.69;5040187;28;20082;-74
2023/01/09 04:51:44;;;;;;;13.85;9.98;;;;;;;2.06;55.66;93984.31;5033012;28;20090;-74
2023/01/09 04:54:09;;;;;;;14.73;10.77;;;;;;;2.03;55.58;93976.97;5041160;28;20155;-77
2023/01/09 04:56:35;;;;;;;16.10;10.55;;;;;;;1.96;55.43;93965.94;5046000;28;20040;-76
2023/01/09 04:59:01;;;;;;;15.27;11.43;;;;;;;1.99;55.43;93965.41;5043924;28;20037;-76
2023/01/09 05:01:26;;;;;;;16.90;10.93;;;;;;;1.96;55.66;93979.81;5035990;28;20031;-73
2023/01/09 05:03:52;;;;;;;13.95;9.55;;;;;;;1.82;55.83;93954.28;5033212;28;20321;-76
2023/01/09 05:06:17;;;;;;;15.60;9.65;;;;;;;1.93;55.31;93958.56;5035353;28;20067;-74
2023/01/09 05:08:42;;;;;;;14.65;10.52;;;;;;;1.81;55.66;93964.00;5030859;28;20325;-74
2023/01/09 05:11:08;;;;;;;12.30;9.00;;;;;;;1.90;55.57;93978.25;5032594;28;20541;-74
2023/01/09 05:13:33;;;;;;;13.38;9.80;;;;;;;1.91;55.09;93964.06;5031507;28;20135;-74
2023/01/09 05:15:58;;;;;;;15.95;11.85;;;;;;;1.88;55.44;93985.56;5038637;28;20045;-75
2023/01/09 05:18:24;;;;;;;16.30;11.27;;;;;;;1.68;55.49;93962.59;5036759;28;20422;-74
2023/01/09 05:20:49;;;;;;;17.38;12.18;;;;;;;1.77;55.80;93999.63;5037367;28;20049;-75
2023/01/09 05:23:15;;;;;;;18.83;13.13;;;;;;;1.79;55.91;93994.13;5038288;28;20298;-74
2023/01/09 05:25:40;;;;;;;17.55;12.63;;;;;;;1.50;55.96;93952.56;5035886;28;20037;-74
2023/01/09 05:28:06;;;;;;;21.20;13.88;;;;;;;1.60;56.16;93972.78;5039064;28;20111;-75
2023/01/09 05:30:31;;;;;;;19.90;13.18;;;;;;;1.50;56.27;93968.28;5037217;28;20029;-74
2023/01/09 05:32:56;;;;;;;19.20;13.38;;;;;;;1.68;56.26;93986.22;5035431;28;20079;-75
2023/01/09 05:35:22;;;;;;;14.57;11.57;;;;;;;1.46;56.59;93971.66;5037776;28;20044;-74
2023/01/09 05:37:47;;;;;;;17.55;11.80;;;;;;;1.62;56.11;93961.00;5033980;28;20045;-74
2023/01/09 05:40:13;;;;;;;20.05;13.77;;;;;;;1.61;56.36;93975.16;5038065;28;20025;-75
2023/01/09 05:42:38;;;;;;;19.98;13.20;;;;;;;1.58;55.93;93970.41;5035220;28;20045;-75
2023/01/09 05:45:05;;;;;;;14.77;10.68;;;;;;;1.70;56.17;93972.06;5033449;28;20044;-74
2023/01/09 05:47:31;;;;;;;19.67;11.77;;;;;;;1.57;56.39;93960.19;5029053;28;20037;-75
2023/01/09 05:49:56;;;;;;;16.45;11.98;;;;;;;1.56;56.50;93966.47;5035199;28;20041;-74
2023/01/09 05:52:23;;;;;;;17.45;12.13;;;;;;;1.66;56.28;93956.84;5034621;28;20104;-74
2023/01/09 05:54:48;;;;;;;21.27;14.00;;;;;;;1.70;56.17;93961.56;5032233;28;20030;-75
2023/01/09 05:57:14;;;;;;;18.70;13.73;;;;;;;1.49;56.70;93961.44;5034002;28;20360;-75
2023/01/09 05:59:39;;;;;;;18.90;13.85;;;;;;;1.55;56.38;93965.69;5040376;28;20117;-75
2023/01/09 06:02:05;;;;;;;19.27;13.82;;;;;;;1.67;56.26;93978.59;5035897;28;20444;-75
2023/01/09 06:04:30;;;;;;;20.27;14.70;;;;;;;1.57;56.14;93960.19;5034979;28;20028;-74
2023/01/09 06:06:56;;;;;;;20.60;13.48;;;;;;;1.60;56.30;93973.59;5036115;28;20052;-74
2023/01/09 06:09:21;;;;;;;18.20;13.20;;;;;;;1.57;56.47;93966.19;5034303;28;20033;-75
2023/01/09 06:11:47;;;;;;;19.80;14.13;;;;;;;1.55;56.68;93963.06;5033913;28;20102;-75
2023/01/09 06:14:12;;;;;;;20.52;13.90;;;;;;;1.51;56.80;93964.63;5033600;28;20053;-75
2023/01/09 06:16:37;;;;;;;22.13;13.80;;;;;;;1.56;56.74;93956.78;5032956;28;20025;-75
2023/01/09 06:19:04;;;;;;;18.52;14.18;;;;;;;1.47;56.97;93952.28;5033920;28;20021;-74
2023/01/09 06:21:30;;;;;;;20.25;14.38;;;;;;;1.46;56.87;93953.31;5032866;28;20045;-75
2023/01/09 06:23:56;;;;;;;22.83;13.20;;;;;;;1.62;56.71;93966.25;5033992;28;20428;-75
2023/01/09 06:26:22;;;;;;;17.20;13.18;;;;;;;1.67;56.44;93968.09;5036051;28;20033;-75
2023/01/09 06:28:47;;;;;;;18.77;12.68;;;;;;;1.61;56.79;93954.19;5035532;28;20060;-75
2023/01/09 06:31:13;;;;;;;21.83;13.93;;;;;;;1.61;56.96;93958.66;5035159;28;20102;-74
2023/01/09 06:33:38;;;;;;;18.90;13.18;;;;;;;1.50;57.15;93942.06;5030503;28;20346;-75
2023/01/09 06:36:04;;;;;;;22.23;14.27;;;;;;;1.66;57.07;93963.91;5032607;28;20166;-74
2023/01/09 06:38:29;;;;;;;22.42;12.98;;;;;;;1.63;57.28;93949.47;5028459;28;20136;-75
2023/01/09 06:40:56;;;;;;;19.80;13.05;;;;;;;1.63;56.95;93938.97;5027099;28;20130;-75
2023/01/09 06:43:22;;;;;;;20.10;14.13;;;;;;;1.63;56.91;93933.75;5030619;28;20060;-75
2023/01/09 06:45:48;;;;;;;22.13;14.07;;;;;;;1.68;57.03;93944.25;5029561;28;20052;-75
2023/01/09 06:48:13;;;;;;;17.05;12.68;;;;;;;1.76;57.16;93957.94;5029466;28;20264;-75
2023/01/09 06:50:39;;;;;;;20.20;12.38;;;;;;;1.68;57.14;93943.47;5027626;28;20511;-73
2023/01/09 06:53:05;;;;;;;16.00;12.00;;;;;;;1.78;57.29;93963.72;5027250;28;20042;-74
2023/01/09 06:55:30;;;;;;;19.60;14.48;;;;;;;1.56;57.41;93916.69;5027830;28;20024;-74
2023/01/09 06:57:56;;;;;;;19.85;14.75;;;;;;;1.88;57.36;93961.16;5029796;28;20136;-74
2023/01/09 07:00:21;;;;;;;21.20;14.25;;;;;;;1.80;57.39;93951.94;5036709;28;20033;-73
2023/01/09 07:02:47;;;;;;;19.90;13.60;;;;;;;1.84;57.73;93946.97;5031547;28;20036;-75
2023/01/09 07:05:12;;;;;;;20.98;14.70;;;;;;;2.00;58.40;93967.00;5031897;28;20115;-74
2023/01/09 07:07:42;;;;;;;25.88;16.17;;;;;;;1.97;58.48;93963.03;5029511;28;20032;-74
2023/01/09 07:10:08;;;;;;;25.27;16.25;;;;;;;1.88;58.45;93934.94;5031651;28;20508;-75
2023/01/09 07:12:34;;;;;;;23.05;16.95;;;;;;;2.02;58.29;93938.66;5032478;28;20036;-74
2023/01/09 07:14:59;;;;;;;26.30;17.13;;;;;;;2.20;58.08;93945.31;5030852;28;20033;-75
2023/01/09 07:17:24;;;;;;;27.20;18.50;;;;;;;2.17;58.21;93925.59;5028484;28;20653;-74
2023/01/09 07:19:50;;;;;;;29.63;16.77;;;;;;;2.26;58.23;93946.88;5033784;28;20091;-75
2023/01/09 07:22:16;;;;;;;25.45;18.17;;;;;;;2.38;58.02;93945.63;5034315;28;20038;-76
2023/01/09 07:24:43;;;;;;;29.88;20.13;;;;;;;2.51;58.25;93960.88;5032652;28;20029;-75
2023/01/09 07:27:09;;;;;;;27.17;19.08;;;;;;;2.53;58.09;93961.41;5028562;28;20505;-75
2023/01/09 07:29:34;;;;;;;36.33;23.33;;;;;;;2.58;58.26;93952.75;5037756;28;20133;-74
2023/01/09 07:32:01;;;;;;;36.85;22.17;;;;;;;2.34;58.30;93947.19;5035101;28;20486;-75
2023/01/09 07:34:26;;;;;;;36.70;22.75;;;;;;;2.13;59.61;93934.25;5030619;28;20417;-75
2023/01/09 07:36:52;;;;;;;30.08;20.70;;;;;;;2.28;59.75;93953.47;5041730;28;20497;-75
2023/01/09 07:39:17;;;;;;;51.40;28.30;;;;;;;2.47;59.37;93951.94;5034479;28;20044;-75
2023/01/09 07:41:43;;;;;;;64.93;34.92;;;;;;;2.34;60.31;93947.19;5035735;28;20055;-75
2023/01/09 07:44:09;;;;;;;49.00;30.80;;;;;;;2.58;59.57;93946.72;5035572;28;20068;-75
2023/01/09 07:46:34;;;;;;;47.30;28.58;;;;;;;2.90;58.80;93969.09;5034611;28;20029;-75
2023/01/09 07:49:00;;;;;;;28.30;18.35;;;;;;;2.80;58.81;93965.66;5037606;28;20084;-75
2023/01/09 07:51:25;;;;;;;28.50;18.23;;;;;;;2.89;58.38;93975.38;5037565;28;20030;-75
2023/01/09 07:53:50;;;;;;;28.85;19.10;;;;;;;2.96;58.04;93952.28;5037249;28;20032;-74
2023/01/09 07:56:16;;;;;;;29.30;19.77;;;;;;;3.04;57.60;93929.94;5040398;28;20415;-76
2023/01/09 07:58:41;;;;;;;32.30;20.45;;;;;;;3.03;58.70;93969.63;5038280;28;20512;-75
2023/01/09 08:01:06;;;;;;;33.30;20.77;;;;;;;3.07;58.83;93960.97;5041675;28;20035;-75
2023/01/09 08:03:32;;;;;;;36.58;23.08;;;;;;;2.85;59.27;93976.16;5041219;28;20039;-75
2023/01/09 08:05:58;;;;;;;46.72;27.23;;;;;;;2.99;59.87;93969.34;5036666;28;20049;-75
2023/01/09 08:08:24;;;;;;;44.47;27.55;;;;;;;3.49;58.78;93983.56;5029808;28;20033;-76
2023/01/09 08:10:50;;;;;;;35.88;21.38;;;;;;;3.33;58.10;93967.03;5035700;28;20049;-75
2023/01/09 08:13:15;;;;;;;29.85;19.75;;;;;;;3.01;59.13;93972.53;5040215;28;20025;-75
2023/01/09 08:15:41;;;;;;;40.03;22.55;;;;;;;3.03;59.99;93980.94;5036344;28;20029;-75
2023/01/09 08:18:06;;;;;;;31.88;21.23;;;;;;;2.75;61.24;93984.03;5040121;28;20551;-75
2023/01/09 08:20:31;;;;;;;42.78;26.92;;;;;;;2.57;61.74;93980.06;5036749;28;20036;-75
2023/01/09 08:22:57;;;;;;;45.05;26.63;;;;;;;2.34;62.63;93964.78;5038207;28;20033;-76
2023/01/09 08:25:22;;;;;;;42.50;28.35;;;;;;;2.63;63.29;93984.28;5031252;28;20022;-74
2023/01/09 08:27:48;;;;;;;50.10;30.40;;;;;;;2.97;62.51;93976.72;5032591;28;20555;-75
2023/01/09 08:30:15;;;;;;;53.10;32.03;;;;;;;3.09;61.15;93992.22;5035420;28;20541;-75
2023/01/09 08:32:40;;;;;;;48.75;29.50;;;;;;;2.82;62.50;93984.59;5033018;28;20039;-75
2023/01/09 08:35:07;;;;;;;45.00;28.50;;;;;;;2.77;62.26;93981.94;5035613;28;20049;-75
2023/01/09 08:37:32;;;;;;;50.45;29.67;;;;;;;2.49;64.43;93981.38;5032919;28;20025;-75
2023/01/09 08:39:57;;;;;;;51.67;32.70;;;;;;;2.99;62.81;93984.34;5035943;28;20055;-75
2023/01/09 08:47:53;;;;;;;42.55;26.50;;;;;;;3.08;62.21;93977.53;5035404;28;20534;-74
2023/01/09 08:50:19;;;;;;;54.20;32.70;;;;;;;2.78;63.37;93973.03;5039579;28;20038;-75
2023/01/09 08:52:44;;;;;;;52.30;32.47;;;;;;;2.97;63.23;93967.00;5034673;28;20041;-75
2023/01/09 08:55:10;;;;;;;49.85;32.55;;;;;;;2.87;63.21;93945.97;5038136;28;20420;-76
2023/01/09 08:57:35;;;;;;;58.53;33.00;;;;;;;2.39;65.01;93964.78;5035953;28;20038;-75
2023/01/09 09:00:01;;;;;;;57.63;34.45;;;;;;;2.47;65.30;93951.94;5034955;28;20120;-75
2023/01/09 09:02:26;;;;;;;59.13;37.67;;;;;;;2.89;63.99;93964.13;5035533;28;20087;-75
2023/01/09 09:04:52;;;;;;;59.70;37.00;;;;;;;2.67;64.43;93939.91;5035482;28;20441;-75
2023/01/09 09:07:25;;;;;;;55.40;33.10;;;;;;;2.65;64.60;93955.13;5037261;28;20112;-75
2023/01/09 09:09:54;;;;;;;50.20;31.60;;;;;;;2.56;65.00;93946.19;5036246;28;20056;-75
2023/01/09 09:12:20;;;;;;;54.38;33.55;;;;;;;2.89;63.47;93940.47;5034835;28;20557;-75
2023/01/09 09:17:31;;;;;;;42.63;26.95;;;;;;;2.53;64.66;93927.28;5033413;28;20071;-76
2023/01/09 09:19:57;;;;;;;37.25;24.50;;;;;;;2.01;65.83;93919.50;5037751;28;20087;-75
2023/01/09 09:22:22;;;;;;;36.97;23.00;;;;;;;2.42;64.57;93907.31;5032994;28;20603;-75
2023/01/09 09:24:47;;;;;;;42.97;26.48;;;;;;;2.39;64.40;93899.16;5033378;28;20048;-75
2023/01/09 09:27:13;;;;;;;35.22;22.17;;;;;;;3.06;63.10;93919.19;5032010;28;20940;-75
2023/01/09 09:29:38;;;;;;;36.25;21.88;;;;;;;2.75;62.98;93913.91;5033577;28;20051;-75
2023/01/09 09:32:03;;;;;;;36.17;23.17;;;;;;;2.82;62.96;93908.41;5032494;28;20429;-75
2023/01/09 09:34:29;;;;;;;45.28;23.30;;;;;;;2.50;63.40;93896.28;5033892;28;20052;-76
2023/01/09 09:36:54;;;;;;;41.83;24.73;;;;;;;2.66;63.59;93901.56;5032535;28;20111;-75
2023/01/09 09:39:20;;;;;;;41.70;26.40;;;;;;;2.31;65.17;93897.81;5032033;28;20320;-74
2023/01/09 09:44:57;;;;;;;45.58;27.40;;;;;;;2.92;63.10;93869.81;5026770;28;20052;-75
2023/01/09 09:47:36;;;;;;;40.60;27.70;;;;;;;2.79;63.53;93867.69;5028124;28;20033;-75
2023/01/09 09:50:17;;;;;;;41.80;25.63;;;;;;;2.70;64.40;93865.84;5029953;28;20485;-75
2023/01/09 09:52:58;;;;;;;44.22;25.15;;;;;;;2.92;64.50;93853.25;5028904;28;20064;-75
2023/01/09 09:55:25;;;;;;;40.42;26.48;;;;;;;2.89;63.91;93835.41;5033491;28;20028;-75
2023/01/09 09:57:52;;;;;;;38.05;24.48;;;;;;;3.10;63.22;93828.25;5031291;28;20037;-75
2023/01/09 10:00:20;;;;;;;38.65;22.70;;;;;;;3.46;61.27;93834.22;5029785;28;20386;-74
2023/01/09 10:03:37;;;;;;;31.88;21.60;;;;;;;3.18;61.86;93823.25;5027275;28;20037;-75
2023/01/09 10:06:08;;;;;;;35.75;23.20;;;;;;;3.02;62.44;93811.19;5025312;28;20144;-74
2023/01/09 10:08:56;;;;;;;30.58;20.63;;;;;;;3.43;61.43;93795.34;5019887;28;20454;-75
2023/01/09 10:11:38;;;;;;;36.42;22.90;;;;;;;3.18;62.30;93783.06;5027661;28;20041;-74
2023/01/09 10:14:04;;;;;;;39.80;24.27;;;;;;;3.06;62.90;93788.59;5027602;28;20540;-75
2023/01/09 10:16:39;;;;;;;43.45;25.63;;;;;;;2.64;64.84;93788.13;5024649;28;20124;-75
2023/01/09 10:19:15;;;;;;;43.60;24.02;;;;;;;2.68;65.73;93789.19;5026915;28;20264;-75
2023/01/09 10:21:56;;;;;;;42.78;27.38;;;;;;;3.15;63.81;93792.25;5033915;28;20899;-76
2023/01/09 10:24:50;;;;;;;36.67;24.23;;;;;;;3.00;63.77;93786.22;5027787;28;20045;-75
2023/01/09 10:27:28;;;;;;;38.55;23.33;;;;;;;2.84;63.74;93788.13;5025780;28;20047;-74
2023/01/09 10:30:07;;;;;;;44.90;26.15;;;;;;;3.06;63.45;93788.59;5034022;28;20550;-75
2023/01/09 10:33:05;;;;;;;40.22;24.05;;;;;;;3.20;62.75;93773.84;5023789;28;20045;-75
2023/01/09 10:35:49;;;;;;;36.97;23.60;;;;;;;3.25;61.89;93773.81;5026032;28;20049;-75
2023/01/09 10:38:38;;;;;;;39.65;23.17;;;;;;;3.65;60.77;93767.63;5026307;28;20063;-75
2023/01/09 10:41:11;;;;;;;36.28;22.80;;;;;;;3.97;60.03;93753.22;5023999;28;20049;-75
2023/01/09 10:43:55;;;;;;;31.52;21.10;;;;;;;3.95;60.05;93756.13;5028244;28;20418;-74
2023/01/09 10:46:34;;;;;;;35.75;22.13;;;;;;;4.04;59.27;93748.44;5030740;28;20016;-75
2023/01/09 10:49:10;;;;;;;39.03;24.60;;;;;;;3.28;61.32;93715.44;5032343;28;20049;-75
2023/01/09 10:51:42;;;;;;;;;;;;;;;4.08;59.81;93746.84;5030471;28;20030;-75
2023/01/09 10:54:13;;;;;;;38.28;25.40;;;;;;;4.08;59.69;93738.94;5027324;28;19916;-75
2023/01/09 10:56:42;;;;;;;43.80;24.98;;;;;;;4.18;59.22;93715.97;5028462;28;20040;-75
2023/01/09 10:59:08;;;;;;;38.85;24.48;;;;;;;3.92;59.76;93698.78;5030532;28;20092;-75
2023/01/09 11:01:38;;;;;;;37.85;23.70;;;;;;;3.73;60.73;93701.28;5037756;28;20113;-75
2023/01/09 11:04:28;;;;;;;38.67;24.63;;;;;;;4.03;60.63;93717.91;5040533;28;20462;-74
2023/01/09 11:07:05;;;;;;;42.70;25.08;;;;;;;3.67;62.36;93698.97;5031693;28;20045;-75
2023/01/09 11:10:00;;;;;;;40.13;25.58;;;;;;;4.00;61.55;93708.75;5020734;28;20048;-75
2023/01/09 11:12:31;;;;;;;38.50;24.35;;;;;;;4.16;61.06;93694.38;5032239;28;20045;-75
2023/01/09 11:15:14;;;;;;;36.40;23.58;;;;;;;4.42;59.66;93696.84;5031866;28;20168;-74
2023/01/09 11:17:44;;;;;;;38.67;25.35;;;;;;;4.61;58.84;93680.06;5038908;28;20413;-74
2023/01/09 11:20:18;;;;;;;33.22;23.73;;;;;;;5.20;58.18;93704.47;5032441;28;20124;-74
2023/01/09 11:22:50;;;;;;;37.38;23.45;;;;;;;4.87;57.73;93679.81;5031582;28;20057;-75
2023/01/09 11:25:19;;;;;;;36.83;24.02;;;;;;;5.26;57.15;93690.94;5025321;28;20654;-75
2023/01/09 11:28:04;;;;;;;36.28;22.83;;;;;;;5.19;56.75;93695.00;5027051;28;21136;-75
2023/01/09 11:30:54;;;;;;;43.38;25.58;;;;;;;5.65;56.26;93684.66;5033242;28;20037;-75
2023/01/09 11:33:23;;;;;;;33.60;22.27;;;;;;;5.82;56.21;93677.78;5030390;28;20040;-76
2023/01/09 11:35:59;;;;;;;37.00;24.30;;;;;;;5.76;56.34;93673.69;5026229;28;20072;-77
2023/01/09 11:38:25;;;;;;;33.90;21.27;;;;;;;6.11;55.12;93661.03;5028955;28;20045;-75
2023/01/09 11:40:54;;;;;;;34.15;22.48;;;;;;;6.32;54.44;93670.97;5034928;28;20089;-75
2023/01/09 11:43:31;;;;;;;37.13;22.30;;;;;;;6.06;53.91;93651.31;5029976;28;20452;-75
2023/01/09 11:46:00;;;;;;;32.65;21.10;;;;;;;5.90;54.53;93648.13;5030044;28;20041;-76
2023/01/09 11:48:53;;;;;;;33.65;21.27;;;;;;;6.07;54.53;93671.34;5029516;28;20086;-75